createdAt,value
2018-11-13T00:01:10.783Z,47.37
2018-11-13T00:03:39.285Z,45.93
2018-11-13T00:06:07.840Z,48.50
2018-11-13T00:08:36.423Z,45.13
2018-11-13T00:11:05.102Z,47.07
2018-11-13T00:13:33.628Z,49.00
2018-11-13T00:16:02.240Z,49.47
2018-11-13T00:18:30.764Z,53.90
2018-11-13T00:20:59.310Z,52.00
2018-11-13T00:23:27.899Z,54.40
2018-11-13T00:25:56.510Z,51.70
2018-11-13T00:28:25.229Z,52.60
2018-11-13T00:30:53.802Z,50.53
2018-11-13T00:33:22.389Z,50.10
2018-11-13T00:35:51.047Z,48.23
2018-11-13T00:38:19.576Z,49.00
2018-11-13T00:40:48.098Z,47.07
2018-11-13T00:43:16.691Z,44.87
2018-11-13T00:45:45.441Z,45.50
2018-11-13T00:48:13.793Z,46.40
2018-11-13T00:50:43.121Z,44.73
2018-11-13T00:53:11.570Z,42.40
2018-11-13T00:55:40.153Z,41.73
2018-11-13T00:58:08.733Z,42.40
2018-11-13T01:00:38.139Z,43.90
2018-11-13T01:03:06.865Z,41.70
2018-11-13T01:05:35.432Z,43.30
2018-11-13T01:08:03.977Z,45.63
2018-11-13T01:10:32.538Z,43.20
2018-11-13T01:13:01.702Z,41.07
2018-11-13T01:15:30.450Z,40.40
2018-11-13T01:17:59.690Z,37.63
2018-11-13T01:20:28.214Z,39.07
2018-11-13T01:22:57.541Z,39.30
2018-11-13T01:25:26.114Z,40.60
2018-11-13T01:27:54.642Z,42.00
2018-11-13T01:30:26.078Z,39.20
2018-11-13T01:32:54.577Z,38.10
2018-11-13T01:35:23.119Z,38.50
2018-11-13T01:37:51.665Z,37.10
2018-11-13T01:40:21.317Z,38.30
2018-11-13T01:42:50.526Z,34.63
2018-11-13T01:45:19.889Z,36.63
2018-11-13T01:47:48.491Z,33.37
2018-11-13T01:50:18.717Z,32.20
2018-11-13T01:52:47.330Z,32.50
2018-11-13T01:55:16.466Z,36.53
2018-11-13T01:57:45.161Z,34.77
2018-11-13T02:00:20.045Z,35.07
2018-11-13T02:02:49.836Z,35.30
2018-11-13T02:05:19.860Z,33.70
2018-11-13T02:07:48.677Z,32.60
2018-11-13T02:10:18.298Z,36.03
2018-11-13T02:12:47.341Z,35.80
2018-11-13T02:15:16.117Z,34.67
2018-11-13T02:17:44.825Z,35.07
2018-11-13T02:20:16.094Z,35.17
2018-11-13T02:22:44.759Z,35.50
2018-11-13T02:25:15.816Z,34.78
2018-11-13T02:27:44.951Z,35.30
2018-11-13T02:30:16.435Z,33.23
2018-11-13T02:32:45.421Z,35.70
2018-11-13T02:35:15.337Z,36.50
2018-11-13T02:37:44.370Z,35.20
2018-11-13T02:40:13.267Z,32.77
2018-11-13T02:42:42.744Z,36.33
2018-11-13T02:45:14.666Z,35.40
2018-11-13T02:47:43.362Z,34.07
2018-11-13T02:50:18.442Z,34.23
2018-11-13T02:52:46.966Z,34.80
2018-11-13T02:55:15.692Z,33.47
2018-11-13T02:57:45.624Z,35.70
2018-11-13T03:00:16.046Z,33.90
2018-11-13T03:02:44.724Z,36.33
2018-11-13T03:05:14.530Z,35.70
2018-11-13T03:07:43.367Z,35.67
2018-11-13T03:10:13.714Z,33.90
2018-11-13T03:12:42.379Z,36.30
2018-11-13T03:15:12.649Z,33.23
2018-11-13T03:17:41.258Z,35.77
2018-11-13T03:20:11.979Z,35.27
2018-11-13T03:22:41.102Z,34.77
2018-11-13T03:25:12.110Z,34.63
2018-11-13T03:27:40.637Z,35.00
2018-11-13T03:30:18.144Z,34.07
2018-11-13T03:32:46.815Z,33.30
2018-11-13T03:35:15.357Z,33.87
2018-11-13T03:37:44.268Z,32.33
2018-11-13T03:40:13.487Z,32.37
2018-11-13T03:42:42.610Z,32.43
2018-11-13T03:45:12.131Z,30.83
2018-11-13T03:47:40.659Z,29.80
2018-11-13T03:50:11.778Z,31.30
2018-11-13T03:52:40.362Z,33.30
2018-11-13T03:55:09.772Z,30.53
2018-11-13T03:57:39.361Z,29.60
2018-11-13T04:00:11.042Z,30.75
2018-11-13T04:02:40.141Z,29.93
2018-11-13T04:05:10.208Z,28.93
2018-11-13T04:07:42.139Z,29.30
2018-11-13T04:10:12.247Z,28.00
2018-11-13T04:12:41.227Z,27.97
2018-11-13T04:15:11.662Z,26.30
2018-11-13T04:17:40.330Z,28.27
2018-11-13T04:20:10.581Z,27.20
2018-11-13T04:22:39.358Z,26.17
2018-11-13T04:25:08.430Z,26.87
2018-11-13T04:27:37.009Z,27.10
2018-11-13T04:30:06.226Z,27.43
2018-11-13T04:32:34.800Z,27.30
2018-11-13T04:35:03.387Z,25.57
2018-11-13T04:37:32.084Z,25.63
2018-11-13T04:40:00.636Z,26.70
2018-11-13T04:42:29.267Z,26.80
2018-11-13T04:44:57.898Z,25.13
2018-11-13T04:47:26.466Z,29.37
2018-11-13T04:49:55.005Z,23.50
2018-11-13T04:52:23.545Z,27.20
2018-11-13T04:54:52.152Z,25.70
2018-11-13T04:57:20.794Z,27.73
2018-11-13T04:59:49.310Z,26.30
2018-11-13T05:02:17.880Z,26.10
2018-11-13T05:04:46.450Z,27.77
2018-11-13T05:07:14.989Z,26.50
2018-11-13T05:09:44.283Z,26.87
2018-11-13T05:12:12.858Z,27.93
2018-11-13T05:14:41.514Z,25.80
2018-11-13T05:17:10.091Z,30.07
2018-11-13T05:19:38.677Z,27.27
2018-11-13T05:22:07.466Z,28.73
2018-11-13T05:24:36.096Z,31.77
2018-11-13T05:27:04.869Z,27.07
2018-11-13T05:29:33.447Z,30.43
2018-11-13T05:32:01.934Z,28.77
2018-11-13T05:34:30.478Z,31.03
2018-11-13T05:36:59.026Z,28.37
2018-11-13T05:39:27.565Z,26.67
2018-11-13T05:41:56.104Z,25.63
2018-11-13T05:44:24.692Z,28.80
2018-11-13T05:46:53.799Z,26.80
2018-11-13T05:49:22.350Z,25.17
2018-11-13T05:51:51.500Z,25.47
2018-11-13T05:54:20.208Z,25.40
2018-11-13T05:56:48.718Z,25.47
2018-11-13T05:59:17.262Z,25.37
2018-11-13T06:01:46.564Z,24.57
2018-11-13T06:04:15.073Z,25.67
2018-11-13T06:06:43.655Z,22.73
2018-11-13T06:09:12.679Z,24.57
2018-11-13T06:11:41.307Z,25.40
2018-11-13T06:14:09.893Z,23.73
2018-11-13T06:16:38.410Z,25.50
2018-11-13T06:19:07.206Z,23.63
2018-11-13T06:21:36.568Z,24.30
2018-11-13T06:24:05.629Z,22.30
2018-11-13T06:26:35.437Z,21.60
2018-11-13T06:29:03.979Z,21.30
2018-11-13T06:31:32.654Z,23.53
2018-11-13T06:34:01.234Z,23.80
2018-11-13T06:36:29.782Z,21.80
2018-11-13T06:38:58.455Z,22.87
2018-11-13T06:41:27.064Z,23.53
2018-11-13T06:43:55.885Z,24.13
2018-11-13T06:46:24.461Z,23.40
2018-11-13T06:48:53.104Z,25.43
2018-11-13T06:51:22.210Z,23.10
2018-11-13T06:54:02.218Z,22.80
2018-11-13T06:56:30.807Z,22.60
2018-11-13T06:58:59.323Z,23.50
2018-11-13T07:01:27.854Z,23.50
2018-11-13T07:03:56.390Z,23.03
2018-11-13T07:06:24.914Z,22.30
2018-11-13T07:08:53.442Z,22.00
2018-11-13T07:11:22.978Z,20.63
2018-11-13T07:13:52.126Z,20.43
2018-11-13T07:16:20.635Z,22.90
2018-11-13T07:18:49.183Z,23.10
2018-11-13T07:21:18.135Z,24.10
2018-11-13T07:23:46.862Z,21.87
2018-11-13T07:26:15.363Z,22.00
2018-11-13T07:28:44.038Z,21.60
2018-11-13T07:31:13.304Z,21.70
2018-11-13T07:33:42.362Z,22.87
2018-11-13T07:36:11.015Z,20.77
2018-11-13T07:38:39.575Z,22.07
2018-11-13T07:41:08.208Z,20.00
2018-11-13T07:43:36.731Z,21.40
2018-11-13T07:46:05.594Z,21.07
2018-11-13T07:48:34.099Z,21.00
2018-11-13T07:51:02.630Z,21.10
2018-11-13T07:53:31.232Z,23.00
2018-11-13T07:55:59.827Z,21.10
2018-11-13T07:58:28.424Z,23.23
2018-11-13T08:00:57.125Z,23.03
2018-11-13T08:03:38.626Z,24.60
2018-11-13T08:06:07.551Z,24.43
2018-11-13T08:08:36.120Z,23.60
2018-11-13T08:11:05.636Z,24.70
2018-11-13T08:13:34.876Z,21.53
2018-11-13T08:16:03.363Z,23.90
2018-11-13T08:18:32.932Z,24.90
2018-11-13T08:21:01.666Z,23.67
2018-11-13T08:23:30.966Z,22.70
2018-11-13T08:26:00.112Z,25.13
2018-11-13T08:28:28.904Z,26.43
2018-11-13T08:30:57.420Z,25.53
2018-11-13T08:33:25.932Z,26.43
2018-11-13T08:35:54.506Z,24.87
2018-11-13T08:38:23.087Z,27.67
2018-11-13T08:40:51.682Z,23.10
2018-11-13T08:43:20.921Z,23.00
2018-11-13T08:45:49.500Z,22.87
2018-11-13T08:48:18.108Z,22.47
2018-11-13T08:50:46.768Z,22.13
2018-11-13T08:53:15.878Z,20.10
2018-11-13T08:55:44.417Z,20.73
2018-11-13T08:58:13.426Z,19.30
2018-11-13T09:00:41.996Z,20.97
2018-11-13T09:03:11.129Z,19.00
2018-11-13T09:05:39.658Z,18.63
2018-11-13T09:08:08.178Z,17.97
2018-11-13T09:10:38.616Z,19.20
2018-11-13T09:13:07.355Z,18.33
2018-11-13T09:15:35.894Z,17.60
2018-11-13T09:18:04.429Z,16.83
2018-11-13T09:20:33.040Z,16.60
2018-11-13T09:23:01.673Z,16.03
2018-11-13T09:25:30.199Z,15.37
2018-11-13T09:27:58.764Z,15.37
2018-11-13T09:30:27.463Z,15.33
2018-11-13T09:32:55.963Z,14.93
2018-11-13T09:35:24.570Z,14.83
2018-11-13T09:37:53.156Z,15.50
2018-11-13T09:40:21.976Z,14.77
2018-11-13T09:42:51.846Z,14.03
2018-11-13T09:45:20.525Z,13.30
2018-11-13T09:47:49.105Z,13.20
2018-11-13T09:50:19.044Z,14.40
2018-11-13T09:52:48.856Z,12.87
2018-11-13T09:55:18.588Z,13.40
2018-11-13T09:57:47.854Z,13.40
2018-11-13T10:00:20.747Z,13.00
2018-11-13T10:02:55.116Z,12.70
2018-11-13T10:05:23.492Z,14.77
2018-11-13T10:07:52.631Z,12.40
2018-11-13T10:10:21.185Z,12.78
2018-11-13T10:12:49.754Z,12.03
2018-11-13T10:15:20.150Z,13.00
2018-11-13T10:17:48.755Z,13.87
2018-11-13T10:20:17.880Z,12.73
2018-11-13T10:22:49.715Z,11.67
2018-11-13T10:25:19.006Z,11.27
2018-11-13T10:27:47.579Z,11.40
2018-11-13T10:30:17.855Z,10.67
2018-11-13T10:32:46.885Z,10.50
2018-11-13T10:35:17.637Z,12.00
2018-11-13T10:37:47.462Z,10.80
2018-11-13T10:40:17.875Z,10.50
2018-11-13T10:42:47.063Z,10.63
2018-11-13T10:45:17.198Z,10.10
2018-11-13T10:47:46.879Z,9.90
2018-11-13T10:50:17.238Z,10.30
2018-11-13T10:52:45.719Z,8.90
2018-11-13T10:55:14.395Z,9.67
2018-11-13T10:57:43.446Z,10.07
2018-11-13T11:00:19.336Z,9.23
2018-11-13T11:03:57.088Z,9.10
2018-11-13T11:06:25.681Z,7.77
2018-11-13T11:08:54.204Z,7.60
2018-11-13T11:11:22.822Z,8.90
2018-11-13T11:13:51.543Z,7.53
2018-11-13T11:16:20.791Z,8.87
2018-11-13T11:18:49.330Z,8.30
2018-11-13T11:21:18.055Z,6.83
2018-11-13T11:23:46.733Z,7.63
2018-11-13T11:26:15.962Z,8.83
2018-11-13T11:28:44.543Z,8.53
2018-11-13T11:31:13.128Z,7.20
2018-11-13T11:33:42.635Z,9.03
2018-11-13T11:36:11.213Z,7.37
2018-11-13T11:38:39.834Z,7.80
2018-11-13T11:41:08.342Z,7.70
2018-11-13T11:43:36.962Z,7.30
2018-11-13T11:46:05.898Z,7.10
2018-11-13T11:48:34.470Z,6.40
2018-11-13T11:51:02.986Z,6.13
2018-11-13T11:53:31.670Z,5.53
2018-11-13T11:56:01.254Z,6.10
2018-11-13T11:58:29.871Z,6.40
2018-11-13T12:00:58.468Z,6.13
2018-11-13T12:03:27.044Z,6.87
2018-11-13T12:05:55.611Z,6.10
2018-11-13T12:08:24.164Z,7.40
2018-11-13T12:10:52.762Z,5.93
2018-11-13T12:13:21.327Z,5.40
2018-11-13T12:15:50.522Z,5.20
2018-11-13T12:18:19.019Z,5.17
2018-11-13T12:20:47.630Z,5.30
2018-11-13T12:23:17.131Z,4.70
2018-11-13T12:25:45.713Z,6.23
2018-11-13T12:28:14.419Z,4.20
2018-11-13T12:30:42.942Z,4.47
2018-11-13T12:33:11.545Z,3.47
2018-11-13T12:35:40.064Z,3.03
2018-11-13T12:38:08.644Z,2.50
2018-11-13T12:40:37.203Z,3.17
2018-11-13T12:43:06.243Z,3.97
2018-11-13T12:45:35.008Z,3.07
2018-11-13T12:48:03.578Z,3.10
2018-11-13T12:50:37.432Z,3.20
2018-11-13T12:53:05.985Z,2.50
2018-11-13T12:55:35.119Z,2.70
2018-11-13T12:58:03.643Z,2.60
2018-11-13T13:00:32.204Z,2.92
2018-11-13T13:03:00.800Z,2.67
2018-11-13T13:05:29.428Z,2.50
2018-11-13T13:07:58.124Z,3.40
2018-11-13T13:10:26.690Z,2.57
2018-11-13T13:12:55.216Z,2.50
2018-11-13T13:15:23.766Z,2.30
2018-11-13T13:17:52.523Z,2.47
2018-11-13T13:20:22.663Z,2.77
2018-11-13T13:22:51.627Z,2.93
2018-11-13T13:25:21.383Z,3.20
2018-11-13T13:27:50.184Z,3.63
2018-11-13T13:30:21.191Z,3.50
2018-11-13T13:32:50.063Z,3.67
2018-11-13T13:35:56.070Z,3.30
2018-11-13T13:38:24.666Z,3.57
2018-11-13T13:40:54.611Z,3.20
2018-11-13T13:43:24.028Z,3.67
2018-11-13T13:45:52.668Z,3.03
2018-11-13T13:48:21.589Z,3.47
2018-11-13T13:50:50.306Z,3.33
2018-11-13T13:53:19.609Z,3.60
2018-11-13T13:55:48.666Z,3.80
2018-11-13T13:58:17.709Z,3.60
2018-11-13T14:00:46.405Z,3.40
2018-11-13T14:03:15.360Z,3.37
2018-11-13T14:05:44.640Z,3.40
2018-11-13T14:08:14.011Z,3.10
2018-11-13T14:10:42.816Z,3.10
2018-11-13T14:13:11.714Z,3.77
2018-11-13T14:15:40.665Z,3.90
2018-11-13T14:18:09.286Z,3.00
2018-11-13T14:20:37.915Z,3.00
2018-11-13T14:23:06.765Z,3.07
2018-11-13T14:25:35.355Z,3.13
2018-11-13T14:28:03.969Z,3.33
2018-11-13T14:30:34.906Z,3.17
2018-11-13T14:33:08.839Z,4.37
2018-11-13T14:35:37.440Z,2.47
2018-11-13T14:38:07.288Z,2.47
2018-11-13T14:40:37.355Z,2.50
2018-11-13T14:43:06.439Z,2.97
2018-11-13T14:45:35.087Z,2.60
2018-11-13T14:48:04.301Z,2.70
2018-11-13T14:50:34.211Z,2.93
2018-11-13T14:53:02.924Z,2.10
2018-11-13T14:55:33.769Z,2.03
2018-11-13T14:58:04.352Z,2.63
2018-11-13T15:00:34.135Z,2.50
2018-11-13T15:03:03.715Z,2.60
2018-11-13T15:05:33.188Z,2.53
2018-11-13T15:08:05.107Z,2.37
2018-11-13T15:10:41.479Z,2.30
2018-11-13T15:13:10.568Z,2.90
2018-11-13T15:15:39.161Z,2.80
2018-11-13T15:18:08.798Z,2.20
2018-11-13T15:20:37.738Z,2.87
2018-11-13T15:23:07.419Z,3.07
2018-11-13T15:25:35.994Z,3.07
2018-11-13T15:28:04.929Z,2.87
2018-11-13T15:30:34.624Z,2.60
2018-11-13T15:33:05.119Z,3.40
2018-11-13T15:35:40.314Z,2.80
2018-11-13T15:38:09.130Z,2.93
2018-11-13T15:40:37.692Z,3.77
2018-11-13T15:43:06.648Z,2.53
2018-11-13T15:45:35.298Z,2.57
2018-11-13T15:48:05.784Z,2.57
2018-11-13T15:50:35.220Z,2.77
2018-11-13T15:53:03.756Z,2.87
2018-11-13T15:55:32.345Z,3.20
2018-11-13T15:58:01.780Z,2.63
2018-11-13T16:00:31.939Z,2.40
2018-11-13T16:03:02.081Z,3.20
2018-11-13T16:05:35.103Z,3.57
2018-11-13T16:08:05.434Z,2.97
2018-11-13T16:10:33.987Z,2.83
2018-11-13T16:13:02.725Z,3.40
2018-11-13T16:15:32.057Z,3.30
2018-11-13T16:18:01.842Z,3.63
2018-11-13T16:20:30.391Z,3.33
2018-11-13T16:22:58.948Z,2.67
2018-11-13T16:25:28.077Z,3.00
2018-11-13T16:27:56.588Z,2.90
2018-11-13T16:30:26.567Z,3.03
2018-11-13T16:32:55.256Z,2.83
2018-11-13T16:35:25.530Z,3.83
2018-11-13T16:37:55.157Z,3.60
2018-11-13T16:40:26.408Z,3.00
2018-11-13T16:42:54.970Z,3.43
2018-11-13T16:45:24.962Z,2.80
2018-11-13T16:47:53.972Z,3.30
2018-11-13T16:50:25.543Z,3.60
2018-11-13T16:52:54.141Z,3.73
2018-11-13T16:55:28.836Z,3.70
2018-11-13T16:57:58.202Z,3.30
2018-11-13T17:00:26.856Z,3.97
2018-11-13T17:02:55.594Z,3.50
2018-11-13T17:05:25.765Z,3.50
2018-11-13T17:07:54.214Z,2.90
2018-11-13T17:10:24.345Z,3.03
2018-11-13T17:12:53.307Z,3.50
2018-11-13T17:15:22.978Z,4.60
2018-11-13T17:17:52.789Z,4.33
2018-11-13T17:20:22.062Z,4.00
2018-11-13T17:22:51.020Z,3.07
2018-11-13T17:25:20.974Z,6.00
2018-11-13T17:27:50.760Z,3.80
2018-11-13T17:30:22.971Z,3.97
2018-11-13T17:32:52.026Z,4.00
2018-11-13T17:35:23.136Z,5.43
2018-11-13T17:37:52.544Z,4.30
2018-11-13T17:40:26.427Z,4.37
2018-11-13T17:42:56.294Z,4.20
2018-11-13T17:45:26.395Z,4.50
2018-11-13T17:47:54.952Z,4.30
2018-11-13T17:50:26.129Z,3.87
2018-11-13T17:52:54.762Z,4.33
2018-11-13T17:55:23.860Z,5.30
2018-11-13T17:57:54.067Z,4.37
2018-11-13T18:00:30.141Z,3.87
2018-11-13T18:02:58.758Z,3.53
2018-11-13T18:05:27.815Z,4.40
2018-11-13T18:07:57.698Z,4.50
2018-11-13T18:10:26.895Z,4.50
2018-11-13T18:12:55.538Z,4.33
2018-11-13T18:15:25.296Z,4.83
2018-11-13T18:17:54.024Z,5.40
2018-11-13T18:20:24.082Z,8.93
2018-11-13T18:22:52.657Z,5.07
2018-11-13T18:25:21.472Z,5.10
2018-11-13T18:27:51.945Z,5.00
2018-11-13T18:30:25.919Z,5.60
2018-11-13T18:32:55.312Z,5.23
2018-11-13T18:35:25.242Z,5.07
2018-11-13T18:37:54.655Z,4.20
2018-11-13T18:40:23.810Z,4.67
2018-11-13T18:42:53.118Z,6.87
2018-11-13T18:45:24.282Z,4.30
2018-11-13T18:47:52.885Z,5.17
2018-11-13T18:50:27.746Z,5.20
2018-11-13T18:52:56.482Z,4.47
2018-11-13T18:55:25.283Z,5.00
2018-11-13T18:57:53.849Z,5.17
2018-11-13T19:00:25.327Z,6.27
2018-11-13T19:02:54.946Z,5.70
2018-11-13T19:05:25.151Z,5.17
2018-11-13T19:07:54.392Z,7.17
2018-11-13T19:10:29.741Z,4.60
2018-11-13T19:12:59.312Z,5.67
2018-11-13T19:15:29.426Z,6.17
2018-11-13T19:17:58.005Z,6.57
2018-11-13T19:20:27.212Z,4.83
2018-11-13T19:22:55.672Z,6.80
2018-11-13T19:25:25.702Z,14.05
2018-11-13T19:27:55.141Z,7.00
2018-11-13T19:30:23.941Z,20.83
2018-11-13T19:32:52.686Z,6.40
2018-11-13T19:35:21.820Z,23.07
2018-11-13T19:37:50.475Z,15.80
2018-11-13T19:40:20.538Z,5.23
2018-11-13T19:42:49.979Z,5.80
2018-11-13T19:45:19.787Z,8.50
2018-11-13T19:47:48.453Z,6.43
2018-11-13T19:50:18.959Z,6.00
2018-11-13T19:52:47.675Z,9.10
2018-11-13T19:55:17.018Z,5.70
2018-11-13T19:57:46.456Z,8.20
2018-11-13T20:00:23.502Z,5.23
2018-11-13T20:02:53.030Z,6.27
2018-11-13T20:05:21.871Z,6.80
2018-11-13T20:07:50.482Z,5.73
2018-11-13T20:10:20.967Z,6.70
2018-11-13T20:12:50.606Z,7.00
2018-11-13T20:15:19.819Z,7.70
2018-11-13T20:17:48.482Z,7.70
2018-11-13T20:20:19.177Z,5.80
2018-11-13T20:22:48.611Z,7.07
2018-11-13T20:25:18.782Z,6.27
2018-11-13T20:27:47.351Z,7.80
2018-11-13T20:30:21.020Z,6.73
2018-11-13T20:32:49.833Z,6.03
2018-11-13T20:35:18.635Z,7.80
2018-11-13T20:37:48.121Z,6.60
2018-11-13T20:40:18.133Z,7.53
2018-11-13T20:42:47.943Z,6.90
2018-11-13T20:45:16.516Z,7.90
2018-11-13T20:47:45.204Z,7.77
2018-11-13T20:50:22.898Z,9.47
2018-11-13T20:52:51.531Z,9.33
2018-11-13T20:55:20.167Z,9.97
2018-11-13T20:57:48.670Z,9.03
2018-11-13T21:00:19.945Z,8.78
2018-11-13T21:02:48.766Z,9.90
2018-11-13T21:05:18.267Z,10.47
2018-11-13T21:07:46.885Z,10.23
2018-11-13T21:10:20.719Z,11.43
2018-11-13T21:12:49.822Z,10.47
2018-11-13T21:15:19.778Z,11.13
2018-11-13T21:17:48.539Z,13.53
2018-11-13T21:20:18.229Z,12.93
2018-11-13T21:22:47.062Z,12.40
2018-11-13T21:25:17.150Z,16.03
2018-11-13T21:27:45.770Z,12.87
2018-11-13T21:30:18.007Z,12.60
2018-11-13T21:32:47.202Z,13.20
2018-11-13T21:35:16.194Z,12.60
2018-11-13T21:37:46.154Z,13.57
2018-11-13T21:40:15.965Z,12.47
2018-11-13T21:42:45.734Z,15.23
2018-11-13T21:45:14.932Z,14.00
2018-11-13T21:47:44.518Z,13.70
2018-11-13T21:50:16.634Z,14.37
2018-11-13T21:52:45.271Z,14.17
2018-11-13T21:55:15.936Z,13.13
2018-11-13T21:57:45.226Z,13.77
2018-11-13T22:00:16.429Z,15.17
2018-11-13T22:02:46.678Z,14.10
2018-11-13T22:05:15.801Z,14.70
2018-11-13T22:07:44.838Z,13.47
2018-11-13T22:10:13.416Z,16.40
2018-11-13T22:12:42.759Z,18.10
2018-11-13T22:15:19.103Z,16.40
2018-11-13T22:17:47.731Z,17.60
2018-11-13T22:20:17.231Z,15.50
2018-11-13T22:22:46.217Z,16.63
2018-11-13T22:25:17.057Z,16.10
2018-11-13T22:27:46.886Z,16.40
2018-11-13T22:30:17.390Z,18.40
2018-11-13T22:32:46.472Z,18.60
2018-11-13T22:35:15.510Z,16.73
2018-11-13T22:37:44.172Z,20.43
2018-11-13T22:40:22.282Z,16.70
2018-11-13T22:42:51.073Z,18.27
2018-11-13T22:45:21.777Z,18.27
2018-11-13T22:47:50.682Z,19.63
2018-11-13T22:50:26.933Z,19.97
2018-11-13T22:52:55.845Z,20.50
2018-11-13T22:55:24.428Z,22.30
2018-11-13T22:57:54.632Z,19.87
2018-11-13T23:00:25.820Z,20.27
2018-11-13T23:02:55.508Z,21.10
2018-11-13T23:05:24.096Z,19.23
2018-11-13T23:07:52.634Z,20.40
2018-11-13T23:10:21.244Z,19.77
2018-11-13T23:12:49.803Z,20.70
2018-11-13T23:15:20.421Z,21.97
2018-11-13T23:17:48.962Z,21.60
2018-11-13T23:20:18.933Z,22.03
2018-11-13T23:22:48.066Z,23.80
2018-11-13T23:25:17.858Z,23.83
2018-11-13T23:27:47.432Z,23.97
2018-11-13T23:30:18.824Z,24.00
2018-11-13T23:32:47.480Z,24.80
2018-11-13T23:35:17.182Z,24.10
2018-11-13T23:37:46.995Z,27.00
2018-11-13T23:40:17.431Z,24.67
2018-11-13T23:42:46.543Z,25.27
2018-11-13T23:45:16.143Z,25.93
2018-11-13T23:47:45.225Z,26.90
2018-11-13T23:50:14.022Z,27.00
2018-11-13T23:52:43.261Z,26.50
2018-11-13T23:55:12.834Z,31.10
2018-11-13T23:57:42.155Z,27.97
